Time;durP1;ratioP1;P1;durP2;ratioP2;P2;SDS_P1;SDS_P2;PMS_P1;PMS_P2;Temp;Humidity;BMP_temperature;BMP_pressure;BME280_temperature;BME280_humidity;BME280_pressure;Samples;Min_cycle;Max_cycle;Signal;HPM_P1;HPM_P2
2024/04/05 00:01:16;;;;;;;8.23;3.30;;;;;;;10.47;100.00;96701.09;5032451;28;20037;-67
2024/04/05 00:03:42;;;;;;;7.25;3.58;;;;;;;10.49;100.00;96705.03;5037827;28;20592;-66
2024/04/05 00:06:07;;;;;;;5.38;3.38;;;;;;;10.73;100.00;96707.75;5032177;28;20183;-69
2024/04/05 00:08:33;;;;;;;8.27;3.40;;;;;;;10.82;100.00;96711.84;5038602;28;20111;-68
2024/04/05 00:10:59;;;;;;;7.57;2.92;;;;;;;10.78;100.00;96712.91;5038114;28;20124;-67
2024/04/05 00:13:25;;;;;;;5.68;3.28;;;;;;;10.65;100.00;96709.59;5033418;28;20080;-67
2024/04/05 00:15:51;;;;;;;11.48;3.58;;;;;;;10.54;100.00;96700.41;5019977;28;20041;-67
2024/04/05 00:18:18;;;;;;;11.05;3.20;;;;;;;10.27;100.00;96711.28;5034246;28;20048;-67
2024/04/05 00:20:44;;;;;;;6.25;2.58;;;;;;;10.24;100.00;96701.03;5040373;28;20083;-68
2024/04/05 00:23:09;;;;;;;6.40;3.30;;;;;;;10.23;100.00;96707.69;5035634;28;20492;-67
2024/04/05 00:25:35;;;;;;;8.73;3.60;;;;;;;10.21;100.00;96709.97;5036105;28;20057;-68
2024/04/05 00:28:00;;;;;;;5.88;3.30;;;;;;;10.19;100.00;96715.03;5039091;28;20064;-69
2024/04/05 00:30:26;;;;;;;9.00;3.30;;;;;;;10.25;100.00;96719.84;5037911;28;20056;-68
2024/04/05 00:32:51;;;;;;;8.80;3.13;;;;;;;10.28;100.00;96713.66;5040297;28;20461;-69
2024/04/05 00:35:16;;;;;;;7.07;3.25;;;;;;;10.34;100.00;96716.91;5036151;28;20071;-69
2024/04/05 00:37:42;;;;;;;8.55;3.63;;;;;;;10.45;100.00;96717.09;5042618;28;20091;-69
2024/04/05 00:40:08;;;;;;;5.07;2.80;;;;;;;10.50;100.00;96714.84;5035982;28;20496;-68
2024/04/05 00:42:34;;;;;;;7.38;3.40;;;;;;;10.52;100.00;96718.00;5042361;28;20110;-69
2024/04/05 00:45:00;;;;;;;7.65;3.35;;;;;;;10.49;100.00;96712.47;5041048;28;20052;-69
2024/04/05 00:47:26;;;;;;;5.57;3.22;;;;;;;10.49;100.00;96715.19;5023150;28;20075;-69
2024/04/05 00:49:52;;;;;;;7.97;3.05;;;;;;;10.46;100.00;96715.91;5041694;28;20049;-68
2024/04/05 00:52:17;;;;;;;6.30;2.97;;;;;;;10.35;100.00;96709.47;5037416;28;20055;-68
2024/04/05 00:54:43;;;;;;;4.60;2.78;;;;;;;10.36;100.00;96711.84;5046210;28;20481;-69
2024/04/05 00:57:09;;;;;;;5.00;2.95;;;;;;;10.45;100.00;96706.91;5022556;28;20045;-66
2024/04/05 00:59:35;;;;;;;5.50;2.97;;;;;;;10.51;100.00;96702.75;5044763;28;20037;-69
2024/04/05 01:02:01;;;;;;;8.45;3.17;;;;;;;10.31;100.00;96701.97;5040348;28;20450;-69
2024/04/05 01:04:26;;;;;;;6.53;3.20;;;;;;;10.22;100.00;96695.94;5021919;28;20694;-69
2024/04/05 01:06:52;;;;;;;5.43;3.33;;;;;;;10.25;100.00;96692.47;5040996;28;20059;-69
2024/04/05 01:09:19;;;;;;;6.40;2.88;;;;;;;10.18;100.00;96700.56;5018182;28;20063;-69
2024/04/05 01:11:57;;;;;;;5.93;2.80;;;;;;;10.05;100.00;96690.94;5040450;28;20514;-68
2024/04/05 01:14:22;;;;;;;5.45;3.00;;;;;;;10.03;100.00;96693.22;5036982;28;20347;-68
2024/04/05 01:16:48;;;;;;;16.15;7.93;;;;;;;9.99;100.00;96692.38;5041179;28;20315;-69
2024/04/05 01:19:17;;;;;;;8.65;3.83;;;;;;;9.95;100.00;96689.59;5036262;28;20055;-68
2024/04/05 01:21:51;;;;;;;7.60;3.22;;;;;;;9.90;100.00;96687.13;5042756;28;20076;-69
2024/04/05 01:24:16;;;;;;;6.72;3.25;;;;;;;9.94;100.00;96696.22;5035419;28;20045;-69
2024/04/05 01:26:42;;;;;;;6.82;3.22;;;;;;;9.98;100.00;96688.09;5022673;28;20041;-69
2024/04/05 01:29:07;;;;;;;6.22;3.08;;;;;;;9.99;100.00;96686.91;5034611;28;20045;-67
2024/04/05 01:31:32;;;;;;;6.90;3.17;;;;;;;10.02;100.00;96684.25;5039914;28;20044;-68
2024/04/05 01:33:58;;;;;;;5.63;2.90;;;;;;;10.08;100.00;96676.53;5038963;28;20045;-70
2024/04/05 01:36:23;;;;;;;5.22;3.15;;;;;;;10.14;100.00;96672.34;5037958;28;20040;-67
2024/04/05 01:38:49;;;;;;;7.53;3.45;;;;;;;10.11;100.00;96665.63;5042414;28;20048;-67
2024/04/05 01:41:14;;;;;;;7.63;2.83;;;;;;;10.17;100.00;96670.81;5033819;28;20083;-67
2024/04/05 01:43:40;;;;;;;6.05;3.35;;;;;;;10.20;100.00;96667.34;5040203;28;20045;-67
2024/04/05 01:46:05;;;;;;;4.78;2.70;;;;;;;10.23;100.00;96661.94;5036683;28;20043;-68
2024/04/05 01:48:31;;;;;;;8.48;3.05;;;;;;;10.27;100.00;96662.00;5041342;28;20449;-67
2024/04/05 01:50:56;;;;;;;5.35;2.85;;;;;;;10.28;100.00;96664.38;5041037;28;20048;-67
2024/04/05 01:53:22;;;;;;;6.78;2.80;;;;;;;10.22;100.00;96667.78;5034987;28;20781;-67
2024/04/05 01:55:47;;;;;;;5.68;3.30;;;;;;;10.12;100.00;96669.97;5039228;28;20045;-69
2024/04/05 01:58:13;;;;;;;9.23;3.25;;;;;;;10.03;100.00;96663.94;5033160;28;20049;-68
2024/04/05 02:00:39;;;;;;;6.78;3.22;;;;;;;10.00;100.00;96663.88;5038795;28;20041;-69
2024/04/05 02:03:05;;;;;;;6.60;3.10;;;;;;;10.03;100.00;96657.66;5035873;28;20560;-68
2024/04/05 02:05:30;;;;;;;5.43;3.20;;;;;;;10.03;100.00;96660.41;5039478;28;20788;-69
2024/04/05 02:07:55;;;;;;;6.30;3.22;;;;;;;10.03;100.00;96657.66;5036777;28;20063;-69
2024/04/05 02:10:21;;;;;;;5.90;3.10;;;;;;;10.07;100.00;96659.31;5017298;28;20105;-70
2024/04/05 02:12:46;;;;;;;6.05;3.00;;;;;;;10.09;100.00;96659.75;5021877;28;20114;-68
2024/04/05 02:15:13;;;;;;;5.75;3.22;;;;;;;10.16;100.00;96655.56;5035307;28;20118;-68
2024/04/05 02:17:38;;;;;;;8.27;3.38;;;;;;;10.06;100.00;96655.00;5044577;22;20091;-68
2024/04/05 02:20:07;;;;;;;5.30;3.05;;;;;;;10.01;100.00;96662.72;5020977;28;20049;-70
2024/04/05 02:22:33;;;;;;;6.40;2.88;;;;;;;10.00;100.00;96650.97;5012038;28;20516;-67
2024/04/05 02:24:59;;;;;;;5.75;2.88;;;;;;;9.93;100.00;96651.63;5019934;28;20438;-67
2024/04/05 02:27:25;;;;;;;7.57;3.35;;;;;;;9.89;100.00;96661.75;4988644;28;20475;-67
2024/04/05 02:29:50;;;;;;;6.55;3.40;;;;;;;9.95;100.00;96664.97;5021263;28;20037;-68
2024/04/05 02:32:16;;;;;;;6.57;3.08;;;;;;;10.05;100.00;96666.31;5015069;28;20546;-66
2024/04/05 02:34:41;;;;;;;6.72;3.28;;;;;;;10.11;100.00;96670.31;5020753;28;20045;-66
2024/04/05 02:37:08;;;;;;;6.05;2.92;;;;;;;10.21;100.00;96663.44;4997356;28;20113;-67
2024/04/05 02:39:33;;;;;;;7.30;3.10;;;;;;;10.24;100.00;96670.94;5019112;28;20073;-69
2024/04/05 02:41:58;;;;;;;7.38;3.00;;;;;;;10.18;100.00;96673.19;5020178;28;20076;-66
2024/04/05 02:44:25;;;;;;;6.00;2.80;;;;;;;10.11;100.00;96676.59;5015273;28;20069;-66
2024/04/05 02:46:52;;;;;;;8.30;2.78;;;;;;;10.00;100.00;96677.56;5020010;28;20586;-67
2024/04/05 02:49:18;;;;;;;6.25;3.33;;;;;;;9.86;100.00;96678.09;5015470;28;20060;-65
2024/04/05 02:51:43;;;;;;;6.70;3.38;;;;;;;9.82;100.00;96667.06;5011305;28;20387;-64
2024/04/05 02:54:08;;;;;;;5.30;3.50;;;;;;;9.72;100.00;96673.94;5014207;28;20048;-65
2024/04/05 02:56:34;;;;;;;7.90;4.20;;;;;;;9.67;100.00;96673.41;5011878;28;20049;-67
2024/04/05 02:58:59;;;;;;;7.55;3.03;;;;;;;9.59;100.00;96677.19;5019113;28;20462;-67
2024/04/05 03:01:25;;;;;;;10.57;3.20;;;;;;;9.48;100.00;96672.28;4996260;28;20109;-65
2024/04/05 03:03:51;;;;;;;5.05;3.40;;;;;;;9.35;100.00;96673.59;5019829;28;20052;-65
2024/04/05 03:06:17;;;;;;;10.52;4.32;;;;;;;9.28;100.00;96676.94;5014517;28;20084;-65
2024/04/05 03:08:42;;;;;;;8.15;3.60;;;;;;;9.23;100.00;96676.44;5019390;28;20057;-68
2024/04/05 03:11:08;;;;;;;5.40;3.08;;;;;;;9.20;100.00;96675.22;5013178;28;20053;-65
2024/04/05 03:13:34;;;;;;;5.47;3.30;;;;;;;9.26;100.00;96681.19;5011721;28;20124;-67
2024/04/05 03:16:01;;;;;;;6.53;3.47;;;;;;;9.32;100.00;96674.28;5001855;28;20544;-66
2024/04/05 03:18:27;;;;;;;4.63;3.17;;;;;;;9.36;100.00;96675.97;4999412;28;20526;-68
2024/04/05 03:20:53;;;;;;;4.45;3.30;;;;;;;9.40;100.00;96678.75;5019649;28;20041;-68
2024/04/05 03:23:18;;;;;;;5.97;4.00;;;;;;;9.36;100.00;96670.50;5006444;28;20470;-66
2024/04/05 03:25:45;;;;;;;8.68;4.50;;;;;;;9.33;100.00;96678.63;5019290;28;20053;-66
2024/04/05 03:28:11;;;;;;;12.75;5.82;;;;;;;9.27;100.00;96672.63;5005831;28;20077;-68
2024/04/05 03:30:36;;;;;;;6.25;3.42;;;;;;;9.08;100.00;96667.16;5018976;28;20180;-69
2024/04/05 03:33:01;;;;;;;7.93;2.55;;;;;;;9.02;100.00;96674.03;5001117;28;20053;-67
2024/04/05 03:35:27;;;;;;;6.15;3.15;;;;;;;9.00;100.00;96674.38;4992489;28;20049;-67
2024/04/05 03:37:55;;;;;;;4.43;2.95;;;;;;;9.03;100.00;96673.69;5013002;28;20053;-66
2024/04/05 03:40:21;;;;;;;5.65;2.83;;;;;;;9.05;100.00;96668.66;5009746;28;20866;-66
2024/04/05 03:42:48;;;;;;;5.25;2.40;;;;;;;9.06;100.00;96670.25;4995492;28;20056;-66
2024/04/05 03:45:13;;;;;;;6.78;2.53;;;;;;;9.04;100.00;96674.47;5013724;28;20052;-67
2024/04/05 03:47:38;;;;;;;5.35;2.50;;;;;;;9.06;100.00;96677.66;5013051;28;20411;-67
2024/04/05 03:50:04;;;;;;;4.38;2.88;;;;;;;9.22;100.00;96677.59;4996221;28;20079;-66
2024/04/05 03:52:30;;;;;;;3.92;2.50;;;;;;;9.32;100.00;96669.59;5011948;28;20045;-67
2024/04/05 03:54:55;;;;;;;6.63;3.10;;;;;;;9.32;100.00;96671.56;5003804;28;20045;-66
2024/04/05 03:57:21;;;;;;;4.50;2.20;;;;;;;9.16;100.00;96677.06;5002543;28;20283;-67
2024/04/05 03:59:47;;;;;;;5.15;2.13;;;;;;;9.02;100.00;96661.19;5007921;28;20378;-66
2024/04/05 04:02:12;;;;;;;5.72;2.45;;;;;;;8.90;100.00;96658.56;5011028;28;20045;-66
2024/04/05 04:04:37;;;;;;;5.38;2.22;;;;;;;8.81;100.00;96647.84;4993350;28;20046;-65
2024/04/05 04:07:03;;;;;;;9.73;2.00;;;;;;;8.72;100.00;96652.72;5005856;28;20156;-64
2024/04/05 04:09:28;;;;;;;6.38;1.92;;;;;;;8.68;100.00;96652.63;5019893;28;20046;-66
2024/04/05 04:11:54;;;;;;;6.93;2.28;;;;;;;8.64;100.00;96656.41;5017363;28;20085;-66
2024/04/05 04:14:19;;;;;;;6.05;2.47;;;;;;;8.61;100.00;96663.38;5018250;28;20069;-67
2024/04/05 04:16:45;;;;;;;5.15;1.95;;;;;;;8.65;100.00;96661.53;5023021;28;20045;-67
2024/04/05 04:19:13;;;;;;;3.30;1.98;;;;;;;8.76;100.00;96662.56;5017294;28;20041;-65
2024/04/05 04:21:38;;;;;;;6.65;2.38;;;;;;;8.74;100.00;96664.84;5015306;28;20833;-67
2024/04/05 04:24:05;;;;;;;5.00;2.45;;;;;;;8.70;100.00;96663.19;5001731;28;20207;-66
2024/04/05 04:26:31;;;;;;;4.55;1.92;;;;;;;8.68;100.00;96657.28;5004527;28;20064;-66
2024/04/05 04:28:57;;;;;;;7.07;1.95;;;;;;;8.64;100.00;96653.69;5022614;28;20045;-66
2024/04/05 04:31:23;;;;;;;3.53;1.95;;;;;;;8.71;100.00;96649.16;5018319;28;20784;-66
2024/04/05 04:33:52;;;;;;;4.72;2.13;;;;;;;8.70;100.00;96652.28;5014370;28;20053;-66
2024/04/05 04:36:19;;;;;;;4.70;2.00;;;;;;;8.70;100.00;96658.53;5017827;28;20049;-65
2024/04/05 04:38:44;;;;;;;4.95;1.73;;;;;;;8.70;100.00;96655.78;5022701;28;20109;-66
2024/04/05 04:41:12;;;;;;;4.60;1.75;;;;;;;8.76;100.00;96650.84;5009293;28;20049;-66
2024/04/05 04:43:39;;;;;;;4.18;1.48;;;;;;;8.96;100.00;96649.72;5022024;28;20092;-66
2024/04/05 04:46:04;;;;;;;3.25;1.50;;;;;;;8.95;100.00;96642.69;5016484;28;20056;-66
2024/04/05 04:48:30;;;;;;;6.07;2.00;;;;;;;8.89;100.00;96633.19;5012800;28;20140;-68
2024/04/05 04:50:55;;;;;;;6.38;1.95;;;;;;;9.05;100.00;96635.88;5019678;28;20073;-69
2024/04/05 04:53:21;;;;;;;8.90;1.80;;;;;;;9.22;100.00;96633.84;5001218;28;20292;-65
2024/04/05 04:55:47;;;;;;;9.00;1.85;;;;;;;9.14;100.00;96630.97;5017735;28;20042;-67
2024/04/05 04:58:17;;;;;;;3.70;1.70;;;;;;;9.14;100.00;96633.72;5000381;28;20062;-67
2024/04/05 05:00:48;;;;;;;4.47;1.48;;;;;;;9.14;100.00;96643.84;5016294;28;20038;-67
2024/04/05 05:03:13;;;;;;;4.28;1.48;;;;;;;9.12;100.00;96640.69;5014102;28;20132;-66
2024/04/05 05:05:40;;;;;;;3.60;1.70;;;;;;;9.16;100.00;96638.81;5021681;28;20088;-66
2024/04/05 05:08:07;;;;;;;12.75;2.22;;;;;;;9.19;100.00;96641.63;5016775;28;20037;-66
2024/04/05 05:10:33;;;;;;;35.63;13.15;;;;;;;9.23;100.00;96651.84;5021893;28;20042;-67
2024/04/05 05:12:59;;;;;;;7.68;3.17;;;;;;;9.27;100.00;96658.94;5015017;28;20052;-66
2024/04/05 05:15:26;;;;;;;8.45;2.85;;;;;;;9.29;100.00;96662.16;5004062;28;20459;-66
2024/04/05 05:17:52;;;;;;;6.50;2.55;;;;;;;9.30;100.00;96660.19;5015416;28;20460;-66
2024/04/05 05:20:21;;;;;;;4.68;1.60;;;;;;;9.31;100.00;96659.84;5016497;28;20057;-68
2024/04/05 05:22:50;;;;;;;8.23;2.30;;;;;;;9.35;100.00;96657.97;5007783;28;20588;-68
2024/04/05 05:25:16;;;;;;;6.97;2.08;;;;;;;9.43;100.00;96650.69;5005860;28;20403;-68
2024/04/05 05:27:42;;;;;;;7.50;2.17;;;;;;;9.49;100.00;96662.13;5012297;28;20104;-68
2024/04/05 05:30:07;;;;;;;8.77;2.45;;;;;;;9.58;100.00;96660.00;5007840;28;20164;-67
2024/04/05 05:32:33;;;;;;;5.60;2.13;;;;;;;9.63;100.00;96656.16;5008717;28;20132;-67
2024/04/05 05:34:58;;;;;;;4.47;2.00;;;;;;;9.66;100.00;96648.00;5008149;28;20180;-66
2024/04/05 05:37:23;;;;;;;5.40;2.17;;;;;;;9.68;100.00;96644.94;5015697;28;20106;-66
2024/04/05 05:39:49;;;;;;;5.78;2.42;;;;;;;9.76;100.00;96650.16;5023904;28;20053;-67
2024/04/05 05:42:14;;;;;;;4.70;2.03;;;;;;;9.89;100.00;96645.31;5008241;28;20037;-67
2024/04/05 05:44:39;;;;;;;9.18;2.30;;;;;;;10.17;100.00;96652.44;5022180;28;20084;-67
2024/04/05 05:47:05;;;;;;;5.57;2.20;;;;;;;10.06;100.00;96655.00;5009392;28;20052;-66
2024/04/05 05:49:30;;;;;;;6.78;2.05;;;;;;;10.29;100.00;96641.31;5011932;28;20623;-67
2024/04/05 05:51:56;;;;;;;8.30;2.50;;;;;;;10.28;100.00;96650.69;5020730;28;20047;-67
2024/04/05 05:54:21;;;;;;;9.50;2.58;;;;;;;10.31;100.00;96643.72;5015633;28;20115;-65
2024/04/05 05:56:47;;;;;;;20.45;9.38;;;;;;;10.43;100.00;96643.53;5021034;28;20041;-68
2024/04/05 05:59:12;;;;;;;17.88;8.00;;;;;;;10.82;100.00;96642.53;5014811;28;20037;-68
2024/04/05 06:01:37;;;;;;;14.55;7.95;;;;;;;11.68;100.00;96640.88;5016548;28;20441;-66
2024/04/05 06:04:04;;;;;;;11.23;3.10;;;;;;;12.88;100.00;96649.81;5006939;28;20049;-66
2024/04/05 06:06:29;;;;;;;11.90;4.45;;;;;;;13.94;100.00;96661.69;5012756;28;20053;-66
2024/04/05 06:08:55;;;;;;;9.57;3.35;;;;;;;15.04;100.00;96655.88;5013855;28;20092;-66
2024/04/05 06:11:22;;;;;;;17.98;6.45;;;;;;;16.21;100.00;96653.03;5005067;28;21428;-65
2024/04/05 06:13:47;;;;;;;5.55;2.10;;;;;;;17.55;99.99;96651.41;5020156;28;20540;-68
2024/04/05 06:16:13;;;;;;;4.53;1.30;;;;;;;16.93;95.54;96655.25;5007995;28;20132;-68
2024/04/05 06:18:43;;;;;;;5.63;2.17;;;;;;;16.56;95.44;96659.50;5010203;28;20041;-67
2024/04/05 06:21:08;;;;;;;15.00;7.95;;;;;;;16.79;92.53;96658.91;5007862;28;20753;-68
2024/04/05 06:23:34;;;;;;;8.40;3.83;;;;;;;16.55;96.96;96655.94;5009083;28;20046;-67
2024/04/05 06:26:00;;;;;;;37.90;26.27;;;;;;;14.43;100.00;96664.16;4999576;28;20045;-66
2024/04/05 06:28:26;;;;;;;7.85;3.38;;;;;;;16.05;100.00;96667.34;5005703;28;20046;-67
2024/04/05 06:30:52;;;;;;;7.40;1.80;;;;;;;17.28;100.00;96673.47;5020450;28;20085;-67
2024/04/05 06:33:18;;;;;;;7.00;2.03;;;;;;;18.38;90.57;96678.06;4988860;28;20060;-68
2024/04/05 06:35:44;;;;;;;3.10;1.70;;;;;;;18.00;73.78;96680.97;5000217;28;20563;-67
2024/04/05 06:38:10;;;;;;;7.00;3.10;;;;;;;19.18;78.60;96678.38;4995470;28;20065;-67
2024/04/05 06:40:36;;;;;;;5.70;3.30;;;;;;;20.37;67.01;96676.00;5017411;28;20038;-67
2024/04/05 06:43:08;;;;;;;9.55;5.75;;;;;;;20.02;59.74;96692.25;5014910;28;20064;-67
2024/04/05 06:45:33;;;;;;;8.48;1.25;;;;;;;18.06;69.58;96687.63;5018195;28;20042;-67
2024/04/05 06:48:01;;;;;;;12.18;8.63;;;;;;;17.31;77.75;96683.72;4997467;28;20063;-67
2024/04/05 06:50:30;;;;;;;9.50;6.15;;;;;;;17.64;80.01;96680.59;5014858;28;20111;-66
2024/04/05 06:52:58;;;;;;;9.63;1.77;;;;;;;17.82;73.39;96678.38;5014899;28;20038;-66
2024/04/05 06:55:24;;;;;;;4.28;1.20;;;;;;;18.18;68.57;96679.94;5004271;28;20401;-67
2024/04/05 06:57:51;;;;;;;5.75;1.10;;;;;;;18.22;68.22;96680.66;5019201;28;20052;-67
2024/04/05 07:00:16;;;;;;;4.28;1.13;;;;;;;17.43;72.03;96671.34;5006058;28;20656;-67
2024/04/05 07:02:42;;;;;;;3.17;1.73;;;;;;;17.47;73.54;96663.00;5010111;28;20123;-67
2024/04/05 07:05:08;;;;;;;5.18;1.40;;;;;;;17.88;71.29;96660.16;5014625;28;20049;-66
2024/04/05 07:07:33;;;;;;;2.80;0.75;;;;;;;18.08;70.48;96654.72;5002649;28;20038;-66
2024/04/05 07:09:59;;;;;;;4.28;1.02;;;;;;;19.96;61.20;96660.63;5016556;28;20052;-67
2024/04/05 07:12:24;;;;;;;3.47;0.90;;;;;;;19.58;58.33;96656.19;5006305;28;20141;-66
2024/04/05 07:14:50;;;;;;;1.40;0.80;;;;;;;17.42;62.63;96655.94;4996573;28;20053;-65
2024/04/05 07:17:15;;;;;;;1.17;0.77;;;;;;;17.55;71.46;96653.41;5003600;28;20049;-66
2024/04/05 07:19:41;;;;;;;4.22;0.93;;;;;;;19.64;60.79;96657.28;5007916;28;20062;-66
2024/04/05 07:22:09;;;;;;;3.85;1.10;;;;;;;19.60;58.33;96664.09;5003468;28;20441;-66
2024/04/05 07:24:34;;;;;;;4.38;1.00;;;;;;;19.41;56.17;96662.88;5008238;28;20097;-67
2024/04/05 07:27:00;;;;;;;2.50;1.10;;;;;;;18.61;61.74;96652.34;4999655;28;20125;-70
2024/04/05 07:29:25;;;;;;;3.60;1.10;;;;;;;18.95;60.96;96643.09;5010812;28;20057;-66
2024/04/05 07:31:51;;;;;;;3.50;0.80;;;;;;;19.47;58.66;96644.50;5004346;28;20462;-67
2024/04/05 07:34:16;;;;;;;2.53;1.17;;;;;;;20.47;55.75;96651.94;5014401;28;20037;-66
2024/04/05 07:36:42;;;;;;;3.38;1.00;;;;;;;21.93;50.40;96652.91;5018856;28;20042;-68
2024/04/05 07:39:08;;;;;;;5.30;1.05;;;;;;;20.32;53.94;96655.03;5016887;28;20447;-67
2024/04/05 07:41:34;;;;;;;5.45;1.13;;;;;;;21.18;52.68;96654.97;5023537;28;20072;-67
2024/04/05 07:44:00;;;;;;;4.20;1.42;;;;;;;18.41;58.84;96654.25;5017251;28;20053;-68
2024/04/05 07:46:26;;;;;;;3.95;0.82;;;;;;;18.21;62.15;96652.16;5034503;28;20053;-66
2024/04/05 07:48:51;;;;;;;15.65;6.30;;;;;;;18.39;64.35;96665.00;5016611;28;20124;-67
2024/04/05 07:51:17;;;;;;;4.20;1.77;;;;;;;20.44;55.66;96665.50;5023913;28;20290;-67
2024/04/05 07:53:44;;;;;;;4.10;1.10;;;;;;;21.66;49.92;96670.00;5045735;28;20045;-68
2024/04/05 07:56:10;;;;;;;2.88;1.15;;;;;;;20.14;51.72;96665.78;5031330;28;20044;-67
2024/04/05 07:58:36;;;;;;;6.57;1.83;;;;;;;20.95;52.42;96673.44;5004652;28;20034;-68
2024/04/05 08:01:03;;;;;;;2.90;1.40;;;;;;;20.25;52.17;96671.88;5020521;28;20099;-68
2024/04/05 08:03:28;;;;;;;6.45;1.52;;;;;;;20.96;50.58;96669.44;5020636;28;20049;-68
2024/04/05 08:05:54;;;;;;;5.60;1.60;;;;;;;21.37;51.17;96673.56;5022594;28;20038;-68
2024/04/05 08:08:20;;;;;;;4.78;1.13;;;;;;;20.95;48.91;96669.88;4999750;28;20044;-68
2024/04/05 08:10:45;;;;;;;5.00;1.17;;;;;;;22.66;46.13;96679.41;5021435;28;20041;-66
2024/04/05 08:13:11;;;;;;;13.02;6.07;;;;;;;23.40;43.86;96683.75;5016230;28;20044;-66
2024/04/05 08:15:36;;;;;;;10.27;6.45;;;;;;;21.81;45.74;96680.75;5022199;28;20041;-66
2024/04/05 08:18:02;;;;;;;7.97;4.15;;;;;;;22.53;45.44;96685.78;5008079;28;20044;-65
2024/04/05 08:20:28;;;;;;;6.82;3.85;;;;;;;23.76;43.55;96690.09;5013019;28;20045;-67
2024/04/05 08:22:53;;;;;;;6.00;1.88;;;;;;;24.96;39.19;96683.09;5022458;28;20137;-67
2024/04/05 08:25:19;;;;;;;5.45;1.75;;;;;;;26.74;37.36;96688.91;5016041;28;20132;-67
2024/04/05 08:27:45;;;;;;;4.47;2.13;;;;;;;24.00;40.00;96687.63;5018343;28;20053;-66
2024/04/05 08:30:18;;;;;;;4.28;2.88;;;;;;;23.27;41.15;96680.22;4996487;28;20038;-65
2024/04/05 08:32:44;;;;;;;7.78;3.03;;;;;;;22.38;45.57;96661.56;5020856;28;20129;-67
2024/04/05 08:35:09;;;;;;;3.40;1.08;;;;;;;21.88;44.76;96667.38;5004115;28;20034;-66
2024/04/05 08:37:36;;;;;;;6.80;1.30;;;;;;;21.71;48.88;96663.88;5001813;28;20111;-66
2024/04/05 08:40:03;;;;;;;3.53;1.17;;;;;;;22.45;45.29;96673.25;5006269;28;20136;-67
2024/04/05 08:42:31;;;;;;;8.13;1.80;;;;;;;24.50;42.42;96676.53;5020194;28;20041;-67
2024/04/05 08:44:57;;;;;;;5.97;1.65;;;;;;;23.99;42.01;96688.88;5016401;28;20522;-68
2024/04/05 08:47:25;;;;;;;4.68;1.33;;;;;;;25.23;40.18;96692.00;5010291;28;20053;-68
2024/04/05 08:49:51;;;;;;;2.00;0.80;;;;;;;24.88;37.70;96704.22;5031100;28;20045;-67
2024/04/05 08:52:17;;;;;;;3.00;1.10;;;;;;;26.66;35.01;96707.34;5016209;28;20547;-67
2024/04/05 08:54:42;;;;;;;3.47;1.05;;;;;;;27.50;33.75;96702.84;5016566;28;20046;-68
2024/04/05 08:57:09;;;;;;;6.07;1.30;;;;;;;25.03;38.03;96696.03;5005195;28;20149;-68
2024/04/05 08:59:35;;;;;;;6.60;0.88;;;;;;;24.85;40.37;96693.19;5013702;28;20386;-67
2024/04/05 09:02:01;;;;;;;1.90;1.10;;;;;;;24.15;39.14;96685.88;5006741;28;20042;-68
2024/04/05 09:04:30;;;;;;;4.10;0.90;;;;;;;23.68;40.99;96681.19;5007465;28;20050;-67
2024/04/05 09:06:56;;;;;;;4.30;1.10;;;;;;;24.41;39.82;96680.09;5021383;28;20504;-67
2024/04/05 09:09:32;;;;;;;5.07;0.90;;;;;;;22.84;42.69;96676.03;5008560;28;20064;-68
2024/04/05 09:12:07;;;;;;;7.25;1.00;;;;;;;25.40;38.60;96678.53;5015930;28;20052;-66
2024/04/05 09:14:36;;;;;;;3.25;0.85;;;;;;;26.03;36.41;96674.13;5001083;28;20468;-68
2024/04/05 09:17:16;;;;;;;4.35;1.10;;;;;;;26.53;36.26;96673.84;4985492;28;20077;-64
2024/04/05 09:19:42;;;;;;;3.40;1.10;;;;;;;26.74;34.75;96663.63;4994279;28;20064;-67
2024/04/05 09:22:08;;;;;;;6.68;1.52;;;;;;;26.96;35.01;96671.00;4996416;28;20802;-67
2024/04/05 09:24:34;;;;;;;2.67;0.82;;;;;;;27.33;33.94;96671.53;5001390;28;20140;-67
2024/04/05 09:27:06;;;;;;;3.35;0.82;;;;;;;25.72;37.22;96657.50;5001210;28;20125;-67
2024/04/05 09:29:31;;;;;;;4.50;0.88;;;;;;;25.36;38.51;96648.63;5019748;28;20088;-68
2024/04/05 09:31:57;;;;;;;3.65;0.80;;;;;;;25.91;38.70;96649.81;5014340;28;20136;-67
2024/04/05 09:34:25;;;;;;;3.63;1.45;;;;;;;27.53;35.31;96665.31;5001280;28;20810;-68
2024/04/05 09:36:53;;;;;;;5.97;1.20;;;;;;;27.36;35.02;96664.19;5015609;28;20136;-68
2024/04/05 09:39:21;;;;;;;9.35;4.32;;;;;;;27.88;33.89;96658.28;4981105;28;20108;-67
2024/04/05 09:41:47;;;;;;;3.65;1.42;;;;;;;27.73;33.77;96666.69;5016889;28;20412;-68
2024/04/05 09:44:13;;;;;;;4.75;1.38;;;;;;;27.60;33.17;96667.75;5004516;28;20677;-67
2024/04/05 09:46:39;;;;;;;6.13;1.60;;;;;;;27.48;33.87;96668.81;5020479;28;20049;-68
2024/04/05 09:49:08;;;;;;;3.55;1.50;;;;;;;24.18;38.79;96654.19;5007992;28;20042;-67
2024/04/05 09:51:44;;;;;;;2.33;1.40;;;;;;;24.32;39.12;96652.06;5026629;28;20037;-68
2024/04/05 09:54:15;;;;;;;14.85;3.85;;;;;;;25.32;37.97;96655.63;5016129;28;20045;-65
2024/04/05 09:56:41;;;;;;;3.63;1.40;;;;;;;26.30;35.89;96650.81;5004201;28;20053;-66
2024/04/05 09:59:13;;;;;;;12.30;2.70;;;;;;;27.60;34.31;96655.72;5013576;28;20037;-64
2024/04/05 10:01:41;;;;;;;12.57;2.30;;;;;;;27.46;32.97;96657.25;5005076;28;20128;-65
2024/04/05 10:04:07;;;;;;;34.00;4.47;;;;;;;25.81;36.76;96659.50;5014875;28;20469;-65
2024/04/05 10:06:42;;;;;;;12.38;2.42;;;;;;;26.47;35.32;96670.91;5018843;28;20049;-65
2024/04/05 10:09:25;;;;;;;12.85;2.35;;;;;;;24.89;35.35;96671.41;5014610;28;20047;-65
2024/04/05 10:11:51;;;;;;;15.10;2.38;;;;;;;25.57;34.11;96662.97;5015939;28;20045;-65
2024/04/05 10:14:21;;;;;;;4.20;1.25;;;;;;;23.32;38.43;96653.69;5004628;28;20045;-68
2024/04/05 10:16:52;;;;;;;5.72;1.30;;;;;;;24.45;37.79;96658.31;5019402;28;20043;-67
2024/04/05 10:19:18;;;;;;;20.38;3.53;;;;;;;27.14;35.27;96656.06;5014868;28;20069;-68
2024/04/05 10:21:45;;;;;;;7.38;1.73;;;;;;;27.45;33.38;96650.84;4986221;28;20041;-67
2024/04/05 10:24:11;;;;;;;16.25;2.95;;;;;;;26.67;35.06;96650.69;5001437;28;20042;-68
2024/04/05 10:26:37;;;;;;;3.30;1.13;;;;;;;25.18;35.54;96645.78;5018555;28;20067;-66
2024/04/05 10:29:06;;;;;;;24.80;3.75;;;;;;;26.55;35.34;96651.66;5009055;28;20069;-66
2024/04/05 10:31:32;;;;;;;9.85;2.60;;;;;;;27.44;33.62;96646.47;5017756;28;20136;-67
2024/04/05 10:34:01;;;;;;;2.95;1.00;;;;;;;27.36;32.78;96636.84;5019855;28;20048;-68
2024/04/05 10:36:36;;;;;;;3.22;0.85;;;;;;;26.68;33.41;96649.44;5010131;28;20053;-66
2024/04/05 10:39:03;;;;;;;4.22;0.88;;;;;;;24.68;36.07;96639.47;5017641;28;20668;-66
2024/04/05 10:41:28;;;;;;;2.75;0.93;;;;;;;24.60;37.12;96636.94;5003528;28;20057;-66
2024/04/05 10:44:04;;;;;;;7.00;1.15;;;;;;;23.65;39.13;96640.16;5008693;28;20041;-65
2024/04/05 10:46:31;;;;;;;3.50;1.10;;;;;;;25.64;36.52;96639.41;5006915;28;20125;-66
2024/04/05 10:48:58;;;;;;;3.95;0.93;;;;;;;27.10;33.48;96656.25;4999143;28;20037;-66
2024/04/05 10:51:23;;;;;;;3.15;0.80;;;;;;;27.68;32.72;96654.09;5011615;28;20078;-67
2024/04/05 10:53:49;;;;;;;2.00;0.88;;;;;;;28.17;31.51;96646.28;5045762;23;20056;-68
2024/04/05 10:56:15;;;;;;;2.50;0.90;;;;;;;28.22;31.17;96645.59;5027084;28;20121;-68
2024/04/05 10:58:40;;;;;;;2.95;1.00;;;;;;;27.92;32.53;96639.19;5038417;28;20079;-68
2024/04/05 11:01:06;;;;;;;3.05;0.80;;;;;;;27.50;33.81;96638.16;5033917;28;20036;-67
2024/04/05 11:03:32;;;;;;;6.03;1.20;;;;;;;26.19;36.61;96614.06;5030426;28;20045;-67
2024/04/05 11:06:04;;;;;;;3.28;1.00;;;;;;;26.18;36.42;96608.91;5039201;28;20061;-67
2024/04/05 11:08:32;;;;;;;4.53;1.02;;;;;;;26.10;36.86;96602.88;5035573;28;20052;-67
2024/04/05 11:10:58;;;;;;;7.03;1.27;;;;;;;26.12;37.67;96608.78;5020627;28;20091;-67
2024/04/05 11:13:26;;;;;;;4.63;1.00;;;;;;;25.88;37.18;96603.06;5015451;28;20041;-66
2024/04/05 11:16:02;;;;;;;4.45;1.30;;;;;;;25.21;38.85;96600.00;5021308;28;20057;-67
2024/04/05 11:18:36;;;;;;;2.78;0.90;;;;;;;25.27;39.04;96592.56;5018087;28;20503;-67
2024/04/05 11:21:02;;;;;;;4.15;1.00;;;;;;;25.75;37.81;96595.63;5036547;28;20550;-67
2024/04/05 11:23:28;;;;;;;3.08;0.70;;;;;;;24.88;37.45;96599.81;5017802;28;20049;-68
2024/04/05 11:25:54;;;;;;;1.63;0.80;;;;;;;25.12;39.25;96597.19;5019520;28;20064;-67